createdAt,value
2018-03-02T00:00:08.711Z,-8.70
2018-03-02T00:01:05.468Z,-8.80
2018-03-02T00:02:06.145Z,-8.80
2018-03-02T00:03:05.400Z,-8.80
2018-03-02T00:04:10.838Z,-8.80
2018-03-02T00:05:05.692Z,-8.80
2018-03-02T00:06:05.805Z,-8.80
2018-03-02T00:07:05.700Z,-8.80
2018-03-02T00:08:05.740Z,-8.80
2018-03-02T00:09:06.091Z,-8.80
2018-03-02T00:10:05.416Z,-8.80
2018-03-02T00:11:10.817Z,-8.80
2018-03-02T00:12:11.203Z,-8.80
2018-03-02T00:13:05.727Z,-8.80
2018-03-02T00:14:08.731Z,-8.80
2018-03-02T00:15:05.853Z,-8.80
2018-03-02T00:16:05.341Z,-8.80
2018-03-02T00:17:06.132Z,-8.90
2018-03-02T00:18:08.580Z,-8.80
2018-03-02T00:19:11.238Z,-8.90
2018-03-02T00:20:05.738Z,-8.90
2018-03-02T00:21:06.218Z,-8.90
2018-03-02T00:22:06.247Z,-8.90
2018-03-02T00:23:11.032Z,-8.90
2018-03-02T00:24:05.340Z,-8.90
2018-03-02T00:25:09.496Z,-8.90
2018-03-02T00:26:05.535Z,-8.90
2018-03-02T00:27:08.935Z,-9.00
2018-03-02T00:28:08.276Z,-8.90
2018-03-02T00:29:06.459Z,-9.00
2018-03-02T00:30:10.941Z,-9.00
2018-03-02T00:31:05.328Z,-8.90
2018-03-02T00:32:05.806Z,-8.90
2018-03-02T00:33:10.417Z,-9.00
2018-03-02T00:34:10.698Z,-9.00
2018-03-02T00:35:08.680Z,-9.00
2018-03-02T00:36:05.317Z,-9.00
2018-03-02T00:37:06.126Z,-9.00
2018-03-02T00:38:05.760Z,-9.00
2018-03-02T00:39:10.178Z,-9.00
2018-03-02T00:40:05.718Z,-9.00
2018-03-02T00:41:05.399Z,-9.00
2018-03-02T00:42:14.771Z,-9.00
2018-03-02T00:43:08.070Z,-9.10
2018-03-02T00:44:05.839Z,-9.00
2018-03-02T00:45:05.475Z,-9.00
2018-03-02T00:46:05.757Z,-9.10
2018-03-02T00:47:05.431Z,-9.00
2018-03-02T00:48:10.502Z,-9.10
2018-03-02T00:49:06.545Z,-9.10
2018-03-02T00:50:05.463Z,-9.10
2018-03-02T00:51:06.498Z,-9.10
2018-03-02T00:52:05.460Z,-9.10
2018-03-02T00:53:11.062Z,-9.10
2018-03-02T00:54:06.178Z,-9.10
2018-03-02T00:55:10.307Z,-9.10
2018-03-02T00:56:10.633Z,-9.10
2018-03-02T00:57:05.362Z,-9.10
2018-03-02T00:58:05.785Z,-9.20
2018-03-02T00:59:06.509Z,-9.20
2018-03-02T01:00:10.850Z,-9.20
2018-03-02T01:01:07.849Z,-9.20
2018-03-02T01:02:05.445Z,-9.20
2018-03-02T01:03:05.864Z,-9.20
2018-03-02T01:04:05.791Z,-9.20
2018-03-02T01:05:05.436Z,-9.20
2018-03-02T01:06:06.191Z,-9.20
2018-03-02T01:07:06.226Z,-9.20
2018-03-02T01:08:07.890Z,-9.30
2018-03-02T01:09:06.238Z,-9.20
2018-03-02T01:10:05.464Z,-9.30
2018-03-02T01:11:05.797Z,-9.20
2018-03-02T01:12:10.798Z,-9.30
2018-03-02T01:13:06.209Z,-9.30
2018-03-02T01:14:08.628Z,-9.30
2018-03-02T01:15:06.137Z,-9.30
2018-03-02T01:16:05.854Z,-9.30
2018-03-02T01:17:05.487Z,-9.30
2018-03-02T01:18:08.448Z,-9.30
2018-03-02T01:19:06.475Z,-9.30
2018-03-02T01:20:05.414Z,-9.30
2018-03-02T01:21:06.207Z,-9.30
2018-03-02T01:22:06.157Z,-9.30
2018-03-02T01:23:08.894Z,-9.30
2018-03-02T01:24:05.499Z,-9.30
2018-03-02T01:25:05.798Z,-9.30
2018-03-02T01:26:06.157Z,-9.30
2018-03-02T01:27:07.916Z,-9.40
2018-03-02T01:28:05.910Z,-9.40
2018-03-02T01:29:05.436Z,-9.40
2018-03-02T01:30:07.964Z,-9.40
2018-03-02T01:31:05.894Z,-9.40
2018-03-02T01:32:05.804Z,-9.40
2018-03-02T01:33:06.168Z,-9.40
2018-03-02T01:34:05.889Z,-9.40
2018-03-02T01:35:06.237Z,-9.40
2018-03-02T01:36:05.515Z,-9.40
2018-03-02T01:37:06.287Z,-9.40
2018-03-02T01:38:10.257Z,-9.40
2018-03-02T01:39:05.830Z,-9.40
2018-03-02T01:40:06.157Z,-9.50
2018-03-02T01:41:05.898Z,-9.50
2018-03-02T01:42:05.395Z,-9.50
2018-03-02T01:43:10.666Z,-9.50
2018-03-02T01:44:08.242Z,-9.40
2018-03-02T01:45:06.177Z,-9.50
2018-03-02T01:46:06.218Z,-9.50
2018-03-02T01:47:11.001Z,-9.50
2018-03-02T01:48:05.926Z,-9.50
2018-03-02T01:49:10.440Z,-9.50
2018-03-02T01:50:05.930Z,-9.50
2018-03-02T01:51:05.848Z,-9.50
2018-03-02T01:52:05.534Z,-9.50
2018-03-02T01:53:05.787Z,-9.50
2018-03-02T01:54:10.905Z,-9.50
2018-03-02T01:55:05.825Z,-9.50
2018-03-02T01:56:05.501Z,-9.50
2018-03-02T01:57:08.104Z,-9.50
2018-03-02T01:58:10.634Z,-9.50
2018-03-02T01:59:06.270Z,-9.50
2018-03-02T02:00:05.924Z,-9.60
2018-03-02T02:01:10.472Z,-9.60
2018-03-02T02:02:05.940Z,-9.60
2018-03-02T02:03:06.251Z,-9.60
2018-03-02T02:04:13.474Z,-9.60
2018-03-02T02:05:06.258Z,-9.60
2018-03-02T02:06:05.865Z,-9.60
2018-03-02T02:07:05.966Z,-9.60
2018-03-02T02:08:08.749Z,-9.70
2018-03-02T02:09:05.495Z,-9.60
2018-03-02T02:10:05.978Z,-9.60
2018-03-02T02:11:09.884Z,-9.60
2018-03-02T02:12:08.300Z,-9.70
2018-03-02T02:13:09.268Z,-9.70
2018-03-02T02:14:05.854Z,-9.70
2018-03-02T02:15:05.554Z,-9.70
2018-03-02T02:16:06.208Z,-9.70
2018-03-02T02:17:08.409Z,-9.70
2018-03-02T02:18:06.230Z,-9.70
2018-03-02T02:19:05.618Z,-9.70
2018-03-02T02:20:06.033Z,-9.70
2018-03-02T02:21:05.935Z,-9.70
2018-03-02T02:22:05.817Z,-9.70
2018-03-02T02:23:05.814Z,-9.80
2018-03-02T02:24:05.527Z,-9.70
2018-03-02T02:25:05.281Z,-9.80
2018-03-02T02:26:05.515Z,-9.80
2018-03-02T02:27:06.184Z,-9.80
2018-03-02T02:28:05.520Z,-9.80
2018-03-02T02:29:05.955Z,-9.80
2018-03-02T02:30:08.259Z,-9.90
2018-03-02T02:31:05.914Z,-9.80
2018-03-02T02:32:05.574Z,-9.90
2018-03-02T02:33:05.875Z,-9.90
2018-03-02T02:34:11.068Z,-9.90
2018-03-02T02:35:05.561Z,-9.90
2018-03-02T02:36:05.561Z,-9.90
2018-03-02T02:37:06.300Z,-9.90
2018-03-02T02:38:10.245Z,-9.90
2018-03-02T02:39:05.846Z,-9.90
2018-03-02T02:40:06.674Z,-9.90
2018-03-02T02:41:05.458Z,-9.90
2018-03-02T02:42:05.479Z,-10.00
2018-03-02T02:43:05.892Z,-10.00
2018-03-02T02:44:05.496Z,-10.00
2018-03-02T02:45:05.876Z,-10.00
2018-03-02T02:46:06.218Z,-10.00
2018-03-02T02:47:08.401Z,-10.00
2018-03-02T02:48:06.225Z,-10.00
2018-03-02T02:49:05.499Z,-10.00
2018-03-02T02:50:05.835Z,-10.10
2018-03-02T02:51:06.300Z,-10.10
2018-03-02T02:52:06.334Z,-10.10
2018-03-02T02:53:08.906Z,-10.10
2018-03-02T02:54:05.459Z,-10.10
2018-03-02T02:55:10.886Z,-10.10
2018-03-02T02:56:05.457Z,-10.10
2018-03-02T02:57:05.564Z,-10.10
2018-03-02T02:58:08.268Z,-10.10
2018-03-02T02:59:10.784Z,-10.10
2018-03-02T03:00:06.244Z,-10.20
2018-03-02T03:01:06.248Z,-10.10
2018-03-02T03:02:05.583Z,-10.10
2018-03-02T03:03:05.504Z,-10.20
2018-03-02T03:04:05.966Z,-10.20
2018-03-02T03:05:07.007Z,-10.20
2018-03-02T03:06:08.163Z,-10.20
2018-03-02T03:07:08.494Z,-10.20
2018-03-02T03:08:10.936Z,-10.20
2018-03-02T03:09:10.935Z,-10.20
2018-03-02T03:10:05.476Z,-10.20
2018-03-02T03:11:05.928Z,-10.20
2018-03-02T03:12:05.347Z,-10.20
2018-03-02T03:13:08.429Z,-10.20
2018-03-02T03:14:09.466Z,-10.20
2018-03-02T03:15:05.960Z,-10.20
2018-03-02T03:16:05.497Z,-10.30
2018-03-02T03:17:05.926Z,-10.20
2018-03-02T03:18:05.577Z,-10.20
2018-03-02T03:19:05.277Z,-10.30
2018-03-02T03:20:05.569Z,-10.30
2018-03-02T03:21:08.345Z,-10.30
2018-03-02T03:22:05.927Z,-10.30
2018-03-02T03:23:08.033Z,-10.30
2018-03-02T03:24:05.898Z,-10.30
2018-03-02T03:25:05.606Z,-10.30
2018-03-02T03:26:06.255Z,-10.30
2018-03-02T03:27:05.945Z,-10.40
2018-03-02T03:28:08.234Z,-10.40
2018-03-02T03:29:05.925Z,-10.40
2018-03-02T03:30:07.730Z,-10.40
2018-03-02T03:31:05.618Z,-10.40
2018-03-02T03:32:05.884Z,-10.30
2018-03-02T03:33:05.562Z,-10.40
2018-03-02T03:34:10.551Z,-10.40
2018-03-02T03:35:06.022Z,-10.40
2018-03-02T03:36:05.227Z,-10.40
2018-03-02T03:37:06.406Z,-10.40
2018-03-02T03:38:10.326Z,-10.40
2018-03-02T03:39:05.915Z,-10.40
2018-03-02T03:40:05.593Z,-10.40
2018-03-02T03:41:05.278Z,-10.40
2018-03-02T03:42:11.008Z,-10.40
2018-03-02T03:43:08.369Z,-10.40
2018-03-02T03:44:05.986Z,-10.40
2018-03-02T03:45:05.649Z,-10.40
2018-03-02T03:46:08.424Z,-10.40
2018-03-02T03:47:11.130Z,-10.40
2018-03-02T03:48:05.936Z,-10.40
2018-03-02T03:49:05.546Z,-10.50
2018-03-02T03:50:10.693Z,-10.50
2018-03-02T03:51:08.498Z,-10.50
2018-03-02T03:52:06.372Z,-10.50
2018-03-02T03:53:06.125Z,-10.50
2018-03-02T03:54:06.333Z,-10.50
2018-03-02T03:55:07.999Z,-10.50
2018-03-02T03:56:05.547Z,-10.50
2018-03-02T03:57:05.333Z,-10.50
2018-03-02T03:58:05.993Z,-10.50
2018-03-02T03:59:08.243Z,-10.50
2018-03-02T04:00:05.959Z,-10.50
2018-03-02T04:01:07.750Z,-10.50
2018-03-02T04:02:10.345Z,-10.50
2018-03-02T04:03:05.991Z,-10.50
2018-03-02T04:04:05.362Z,-10.50
2018-03-02T04:05:06.016Z,-10.50
2018-03-02T04:06:05.963Z,-10.50
2018-03-02T04:07:05.605Z,-10.50
2018-03-02T04:08:05.554Z,-10.50
2018-03-02T04:09:06.066Z,-10.50
2018-03-02T04:10:06.769Z,-10.60
2018-03-02T04:11:05.984Z,-10.50
2018-03-02T04:12:05.648Z,-10.60
2018-03-02T04:13:05.566Z,-10.60
2018-03-02T04:14:05.905Z,-10.60
2018-03-02T04:15:06.062Z,-10.60
2018-03-02T04:16:08.150Z,-10.60
2018-03-02T04:17:05.948Z,-10.60
2018-03-02T04:18:05.584Z,-10.60
2018-03-02T04:19:11.049Z,-10.60
2018-03-02T04:20:08.148Z,-10.60
2018-03-02T04:21:05.965Z,-10.60
2018-03-02T04:22:05.578Z,-10.60
2018-03-02T04:23:05.615Z,-10.60
2018-03-02T04:24:05.954Z,-10.60
2018-03-02T04:25:10.372Z,-10.60
2018-03-02T04:26:11.647Z,-10.60
2018-03-02T04:27:06.442Z,-10.60
2018-03-02T04:28:05.585Z,-10.60
2018-03-02T04:29:06.378Z,-10.70
2018-03-02T04:30:05.310Z,-10.70
2018-03-02T04:31:06.058Z,-10.70
2018-03-02T04:32:05.684Z,-10.60
2018-03-02T04:33:05.942Z,-10.70
2018-03-02T04:34:10.165Z,-10.60
2018-03-02T04:35:05.693Z,-10.70
2018-03-02T04:36:06.048Z,-10.70
2018-03-02T04:37:10.246Z,-10.70
2018-03-02T04:38:10.492Z,-10.70
2018-03-02T04:39:10.621Z,-10.70
2018-03-02T04:40:05.965Z,-10.70
2018-03-02T04:41:07.751Z,-10.70
2018-03-02T04:42:10.308Z,-10.70
2018-03-02T04:43:06.026Z,-10.70
2018-03-02T04:44:05.995Z,-10.70
2018-03-02T04:45:10.662Z,-10.70
2018-03-02T04:46:06.333Z,-10.70
2018-03-02T04:47:06.088Z,-10.70
2018-03-02T04:48:10.173Z,-10.70
2018-03-02T04:49:10.347Z,-10.70
2018-03-02T04:50:05.613Z,-10.70
2018-03-02T04:51:06.019Z,-10.70
2018-03-02T04:52:05.966Z,-10.70
2018-03-02T04:53:05.223Z,-10.70
2018-03-02T04:54:06.084Z,-10.70
2018-03-02T04:55:10.714Z,-10.80
2018-03-02T04:56:08.928Z,-10.80
2018-03-02T04:57:05.658Z,-10.70
2018-03-02T04:58:10.435Z,-10.80
2018-03-02T04:59:05.986Z,-10.80
2018-03-02T05:00:06.304Z,-10.80
2018-03-02T05:01:07.979Z,-10.80
2018-03-02T05:02:05.677Z,-10.80
2018-03-02T05:03:06.031Z,-10.80
2018-03-02T05:04:08.191Z,-10.80
2018-03-02T05:05:08.298Z,-10.80
2018-03-02T05:06:06.005Z,-10.80
2018-03-02T05:07:13.846Z,-10.80
2018-03-02T05:08:05.345Z,-10.80
2018-03-02T05:09:05.985Z,-10.80
2018-03-02T05:10:05.623Z,-10.80
2018-03-02T05:11:05.922Z,-10.80
2018-03-02T05:12:10.571Z,-10.80
2018-03-02T05:13:05.328Z,-10.90
2018-03-02T05:14:05.972Z,-10.80
2018-03-02T05:15:08.346Z,-10.80
2018-03-02T05:16:06.009Z,-10.90
2018-03-02T05:17:05.355Z,-10.90
2018-03-02T05:18:06.922Z,-10.90
2018-03-02T05:19:05.792Z,-10.90
2018-03-02T05:20:06.528Z,-10.90
2018-03-02T05:21:06.435Z,-10.90
2018-03-02T05:22:11.048Z,-10.90
2018-03-02T05:23:10.248Z,-10.90
2018-03-02T05:24:05.583Z,-10.90
2018-03-02T05:25:12.536Z,-10.90
2018-03-02T05:26:06.013Z,-10.90
2018-03-02T05:27:05.370Z,-10.90
2018-03-02T05:28:06.474Z,-10.90
2018-03-02T05:29:06.143Z,-10.90
2018-03-02T05:30:05.682Z,-10.90
2018-03-02T05:31:10.393Z,-10.90
2018-03-02T05:32:10.553Z,-10.90
2018-03-02T05:33:10.771Z,-10.90
2018-03-02T05:34:08.493Z,-10.90
2018-03-02T05:35:06.393Z,-10.90
2018-03-02T05:36:05.233Z,-10.90
2018-03-02T05:37:06.361Z,-10.90
2018-03-02T05:38:08.205Z,-10.90
2018-03-02T05:39:05.821Z,-11.00
2018-03-02T05:40:05.683Z,-10.90
2018-03-02T05:41:06.423Z,-10.90
2018-03-02T05:42:06.112Z,-10.90
2018-03-02T05:43:05.674Z,-10.90
2018-03-02T05:44:06.392Z,-10.90
2018-03-02T05:45:05.700Z,-10.90
2018-03-02T05:46:06.102Z,-10.90
2018-03-02T05:47:05.392Z,-10.90
2018-03-02T05:48:06.052Z,-10.90
2018-03-02T05:49:06.086Z,-10.90
2018-03-02T05:50:05.722Z,-10.90
2018-03-02T05:51:06.011Z,-10.90
2018-03-02T05:52:06.013Z,-10.90
2018-03-02T05:53:05.636Z,-10.90
2018-03-02T05:54:10.452Z,-10.90
2018-03-02T05:55:08.515Z,-10.90
2018-03-02T05:56:06.158Z,-10.90
2018-03-02T05:57:08.283Z,-10.90
2018-03-02T05:58:09.310Z,-10.90
2018-03-02T05:59:06.089Z,-10.90
2018-03-02T06:00:10.691Z,-10.90
2018-03-02T06:01:09.390Z,-10.90
2018-03-02T06:02:06.045Z,-10.90
2018-03-02T06:03:06.414Z,-10.90
2018-03-02T06:04:05.653Z,-10.90
2018-03-02T06:05:08.450Z,-10.90
2018-03-02T06:06:06.031Z,-10.80
2018-03-02T06:07:05.367Z,-10.80
2018-03-02T06:08:05.999Z,-10.80
2018-03-02T06:09:05.454Z,-10.80
2018-03-02T06:10:06.158Z,-10.80
2018-03-02T06:11:05.685Z,-10.80
2018-03-02T06:12:13.421Z,-10.80
2018-03-02T06:13:06.088Z,-10.80
2018-03-02T06:14:06.088Z,-10.80
2018-03-02T06:15:06.133Z,-10.80
2018-03-02T06:16:05.425Z,-10.80
2018-03-02T06:17:08.028Z,-10.70
2018-03-02T06:18:05.814Z,-10.80
2018-03-02T06:19:11.061Z,-10.70
2018-03-02T06:20:06.192Z,-10.80
2018-03-02T06:21:07.747Z,-10.70
2018-03-02T06:22:08.973Z,-10.70
2018-03-02T06:23:10.687Z,-10.70
2018-03-02T06:24:08.710Z,-10.70
2018-03-02T06:25:05.351Z,-10.70
2018-03-02T06:26:10.658Z,-10.60
2018-03-02T06:27:08.338Z,-10.60
2018-03-02T06:28:06.197Z,-10.70
2018-03-02T06:29:10.290Z,-10.60
2018-03-02T06:30:09.747Z,-10.60
2018-03-02T06:31:08.842Z,-10.60
2018-03-02T06:32:07.948Z,-10.60
2018-03-02T06:33:06.095Z,-10.60
2018-03-02T06:34:06.063Z,-10.50
2018-03-02T06:35:05.334Z,-10.60
2018-03-02T06:36:05.741Z,-10.50
2018-03-02T06:37:06.166Z,-10.50
2018-03-02T06:38:10.372Z,-10.50
2018-03-02T06:39:05.666Z,-10.60
2018-03-02T06:40:11.039Z,-10.50
2018-03-02T06:41:05.772Z,-10.50
2018-03-02T06:42:06.080Z,-10.50
2018-03-02T06:43:05.763Z,-10.50
2018-03-02T06:44:06.196Z,-10.50
2018-03-02T06:45:07.788Z,-10.40
2018-03-02T06:46:05.766Z,-10.40
2018-03-02T06:47:06.127Z,-10.40
2018-03-02T06:48:05.675Z,-10.40
2018-03-02T06:49:06.431Z,-10.40
2018-03-02T06:50:08.888Z,-10.40
2018-03-02T06:51:10.300Z,-10.40
2018-03-02T06:52:05.736Z,-10.30
2018-03-02T06:53:06.133Z,-10.40
2018-03-02T06:54:06.066Z,-10.40
2018-03-02T06:55:06.193Z,-10.30
2018-03-02T06:56:05.687Z,-10.30
2018-03-02T06:57:05.708Z,-10.30
2018-03-02T06:58:10.878Z,-10.20
2018-03-02T06:59:11.220Z,-10.20
2018-03-02T07:00:05.475Z,-10.20
2018-03-02T07:01:05.440Z,-10.20
2018-03-02T07:02:06.220Z,-10.10
2018-03-02T07:03:05.938Z,-10.10
2018-03-02T07:04:05.577Z,-10.10
2018-03-02T07:05:06.135Z,-10.10
2018-03-02T07:06:08.027Z,-10.00
2018-03-02T07:07:08.290Z,-9.90
2018-03-02T07:08:06.225Z,-9.90
2018-03-02T07:09:06.097Z,-9.90
2018-03-02T07:10:08.200Z,-9.90
2018-03-02T07:11:05.833Z,-9.90
2018-03-02T07:12:06.084Z,-9.80
2018-03-02T07:13:05.344Z,-9.80
2018-03-02T07:14:09.593Z,-9.70
2018-03-02T07:15:06.273Z,-9.70
2018-03-02T07:16:05.440Z,-9.60
2018-03-02T07:17:05.846Z,-9.60
2018-03-02T07:18:05.704Z,-9.60
2018-03-02T07:19:06.146Z,-9.60
2018-03-02T07:20:06.519Z,-9.60
2018-03-02T07:21:05.459Z,-9.60
2018-03-02T07:22:06.132Z,-9.60
2018-03-02T07:23:05.453Z,-9.60
2018-03-02T07:24:05.501Z,-9.60
2018-03-02T07:25:06.103Z,-9.60
2018-03-02T07:26:05.377Z,-9.70
2018-03-02T07:27:08.386Z,-9.60
2018-03-02T07:28:06.176Z,-9.60
2018-03-02T07:29:06.231Z,-9.70
2018-03-02T07:30:06.271Z,-9.70
2018-03-02T07:31:07.036Z,-9.70
2018-03-02T07:32:10.859Z,-9.70
2018-03-02T07:33:10.454Z,-9.70
2018-03-02T07:34:10.870Z,-9.70
2018-03-02T07:35:06.274Z,-9.70
2018-03-02T07:36:05.807Z,-9.70
2018-03-02T07:37:08.644Z,-9.70
2018-03-02T07:38:05.415Z,-9.70
2018-03-02T07:39:06.132Z,-9.70
2018-03-02T07:40:08.666Z,-9.70
2018-03-02T07:41:05.363Z,-9.70
2018-03-02T07:42:10.624Z,-9.70
2018-03-02T07:43:05.483Z,-9.70
2018-03-02T07:44:06.193Z,-9.70
2018-03-02T07:45:08.073Z,-9.70
2018-03-02T07:46:08.527Z,-9.70
2018-03-02T07:47:11.266Z,-9.70
2018-03-02T07:48:08.793Z,-9.60
2018-03-02T07:49:10.341Z,-9.70
2018-03-02T07:50:10.826Z,-9.60
2018-03-02T07:51:06.184Z,-9.60
2018-03-02T07:52:06.958Z,-9.60
2018-03-02T07:53:06.261Z,-9.60
2018-03-02T07:54:06.194Z,-9.60
2018-03-02T07:55:05.420Z,-9.60
2018-03-02T07:56:05.920Z,-9.60
2018-03-02T07:57:05.229Z,-9.60
2018-03-02T07:58:05.811Z,-9.50
2018-03-02T07:59:08.380Z,-9.50
2018-03-02T08:00:05.976Z,-9.50
2018-03-02T08:01:07.796Z,-9.40
2018-03-02T08:02:10.253Z,-9.40
2018-03-02T08:03:05.765Z,-9.40
2018-03-02T08:04:06.134Z,-9.40
2018-03-02T08:05:05.918Z,-9.30
2018-03-02T08:06:05.432Z,-9.30
2018-03-02T08:07:10.650Z,-9.20
2018-03-02T08:08:06.346Z,-9.20
2018-03-02T08:09:05.746Z,-9.10
2018-03-02T08:10:05.894Z,-9.00
2018-03-02T08:11:10.527Z,-9.00
2018-03-02T08:12:05.860Z,-8.90
2018-03-02T08:13:05.830Z,-8.90
2018-03-02T08:14:06.225Z,-8.80
2018-03-02T08:15:05.557Z,-8.80
2018-03-02T08:16:06.609Z,-8.80
2018-03-02T08:17:06.162Z,-8.70
2018-03-02T08:18:10.559Z,-8.70
2018-03-02T08:19:08.453Z,-8.70
2018-03-02T08:20:06.168Z,-8.70
2018-03-02T08:21:05.686Z,-8.70
2018-03-02T08:22:06.188Z,-8.70
2018-03-02T08:23:08.386Z,-8.60
2018-03-02T08:24:06.145Z,-8.60
2018-03-02T08:25:08.350Z,-8.60
2018-03-02T08:26:08.505Z,-8.60
2018-03-02T08:27:06.239Z,-8.60
2018-03-02T08:28:05.380Z,-8.60
2018-03-02T08:29:05.830Z,-8.60
2018-03-02T08:30:05.496Z,-8.60
2018-03-02T08:31:06.180Z,-8.60
2018-03-02T08:32:05.908Z,-8.60
2018-03-02T08:33:05.483Z,-8.60
2018-03-02T08:34:05.882Z,-8.60
2018-03-02T08:35:05.465Z,-8.50
2018-03-02T08:36:05.904Z,-8.50
2018-03-02T08:37:05.892Z,-8.50
2018-03-02T08:38:05.977Z,-8.50
2018-03-02T08:39:07.915Z,-8.40
2018-03-02T08:40:05.794Z,-8.40
2018-03-02T08:41:07.811Z,-8.40
2018-03-02T08:42:05.395Z,-8.40
2018-03-02T08:43:06.228Z,-8.40
2018-03-02T08:44:05.404Z,-8.40
2018-03-02T08:45:08.505Z,-8.30
2018-03-02T08:46:06.305Z,-8.40
2018-03-02T08:47:05.538Z,-8.30
2018-03-02T08:48:11.123Z,-8.30
2018-03-02T08:49:08.543Z,-8.30
2018-03-02T08:50:06.347Z,-8.30
2018-03-02T08:51:05.446Z,-8.30
2018-03-02T08:52:05.242Z,-8.30
2018-03-02T08:53:05.521Z,-8.20
2018-03-02T08:54:06.233Z,-8.20
2018-03-02T08:55:05.858Z,-8.20
2018-03-02T08:56:08.918Z,-8.10
2018-03-02T08:57:05.418Z,-8.20
2018-03-02T08:58:09.692Z,-8.10
2018-03-02T08:59:05.557Z,-8.10
2018-03-02T09:00:05.996Z,-8.10
2018-03-02T09:01:07.828Z,-8.00
2018-03-02T09:02:10.356Z,-8.00
2018-03-02T09:03:05.940Z,-7.90
2018-03-02T09:04:05.695Z,-7.90
2018-03-02T09:05:05.965Z,-7.90
2018-03-02T09:06:06.234Z,-7.90
2018-03-02T09:07:06.630Z,-7.80
2018-03-02T09:08:06.555Z,-7.80
2018-03-02T09:09:05.580Z,-7.70
2018-03-02T09:10:08.756Z,-7.60
2018-03-02T09:11:05.444Z,-7.60
2018-03-02T09:12:07.959Z,-7.60
2018-03-02T09:13:05.853Z,-7.50
2018-03-02T09:14:06.967Z,-7.50
2018-03-02T09:15:06.225Z,-7.50
2018-03-02T09:16:08.295Z,-7.30
2018-03-02T09:17:05.996Z,-7.30
2018-03-02T09:18:05.632Z,-7.30
2018-03-02T09:19:05.845Z,-7.20
2018-03-02T09:20:06.303Z,-7.10
2018-03-02T09:21:08.611Z,-7.00
2018-03-02T09:22:06.295Z,-7.00
2018-03-02T09:23:05.739Z,-6.90
2018-03-02T09:24:10.558Z,-6.80
2018-03-02T09:25:05.875Z,-6.80
2018-03-02T09:26:06.224Z,-6.70
2018-03-02T09:27:05.484Z,-6.60
2018-03-02T09:28:08.818Z,-6.60
2018-03-02T09:29:10.368Z,-6.60
2018-03-02T09:30:10.792Z,-6.50
2018-03-02T09:31:05.941Z,-6.50
2018-03-02T09:32:06.004Z,-6.40
2018-03-02T09:33:13.888Z,-6.30
2018-03-02T09:34:05.538Z,-6.30
2018-03-02T09:35:05.885Z,-6.30
2018-03-02T09:36:05.583Z,-6.20
2018-03-02T09:37:05.970Z,-6.20
2018-03-02T09:38:08.446Z,-6.10
2018-03-02T09:39:06.246Z,-6.10
2018-03-02T09:40:08.483Z,-6.10
2018-03-02T09:41:13.720Z,-6.00
2018-03-02T09:42:05.179Z,-6.10
2018-03-02T09:43:08.493Z,-5.90
2018-03-02T09:44:06.367Z,-5.90
2018-03-02T09:45:08.302Z,-5.80
2018-03-02T09:46:05.891Z,-5.80
2018-03-02T09:47:05.683Z,-5.70
2018-03-02T09:48:06.259Z,-5.70
2018-03-02T09:49:06.274Z,-5.60
2018-03-02T09:50:05.548Z,-5.60
2018-03-02T09:51:06.381Z,-5.50
2018-03-02T09:52:10.584Z,-5.60
2018-03-02T09:53:06.265Z,-5.50
2018-03-02T09:54:07.702Z,-5.50
2018-03-02T09:55:05.552Z,-5.50
2018-03-02T09:56:11.017Z,-5.40
2018-03-02T09:57:08.150Z,-5.30
2018-03-02T09:58:05.866Z,-5.30
2018-03-02T09:59:05.509Z,-5.30
2018-03-02T10:00:06.324Z,-5.20
2018-03-02T10:01:05.661Z,-5.20
2018-03-02T10:02:05.945Z,-5.10
2018-03-02T10:03:05.635Z,-5.20
2018-03-02T10:04:09.423Z,-5.10
2018-03-02T10:05:10.523Z,-5.10
2018-03-02T10:06:08.196Z,-5.20
2018-03-02T10:07:05.971Z,-5.10
2018-03-02T10:08:08.287Z,-5.20
2018-03-02T10:09:05.908Z,-5.20
2018-03-02T10:10:05.622Z,-5.20
2018-03-02T10:11:05.998Z,-5.30
2018-03-02T10:12:05.718Z,-5.30
2018-03-02T10:13:08.181Z,-5.20
2018-03-02T10:14:06.258Z,-5.30
2018-03-02T10:15:08.318Z,-5.20
2018-03-02T10:16:06.000Z,-5.20
2018-03-02T10:17:05.906Z,-5.20
2018-03-02T10:18:05.946Z,-5.20
2018-03-02T10:19:05.593Z,-5.10
2018-03-02T10:20:10.893Z,-5.10
2018-03-02T10:21:05.639Z,-5.10
2018-03-02T10:22:08.338Z,-5.00
2018-03-02T10:23:07.423Z,-5.00
2018-03-02T10:24:05.567Z,-4.90
2018-03-02T10:25:05.228Z,-4.90
2018-03-02T10:26:05.582Z,-4.90
2018-03-02T10:27:05.585Z,-4.80
2018-03-02T10:28:05.911Z,-4.80
2018-03-02T10:29:05.519Z,-4.80
2018-03-02T10:30:05.949Z,-4.80
2018-03-02T10:31:06.281Z,-4.80
2018-03-02T10:32:05.926Z,-4.80
2018-03-02T10:33:05.898Z,-4.70
2018-03-02T10:34:06.281Z,-4.70
2018-03-02T10:35:05.626Z,-4.70
2018-03-02T10:36:06.053Z,-4.70
2018-03-02T10:37:05.569Z,-4.60
2018-03-02T10:38:05.970Z,-4.60
2018-03-02T10:39:07.754Z,-4.50
2018-03-02T10:40:05.532Z,-4.50
2018-03-02T10:41:05.623Z,-4.50
2018-03-02T10:42:07.882Z,-4.40
2018-03-02T10:43:05.898Z,-4.40
2018-03-02T10:44:05.968Z,-4.40
2018-03-02T10:45:05.216Z,-4.40
2018-03-02T10:46:05.258Z,-4.40
2018-03-02T10:47:08.801Z,-4.40
2018-03-02T10:48:05.602Z,-4.40
2018-03-02T10:49:05.897Z,-4.30
2018-03-02T10:50:06.389Z,-4.40
2018-03-02T10:51:05.581Z,-4.40
2018-03-02T10:52:06.043Z,-4.30
2018-03-02T10:53:07.826Z,-4.20
2018-03-02T10:54:05.649Z,-4.20
2018-03-02T10:55:06.740Z,-4.20
2018-03-02T10:56:05.959Z,-4.10
2018-03-02T10:57:10.318Z,-4.10
2018-03-02T10:58:10.664Z,-4.00
2018-03-02T10:59:05.909Z,-4.10
2018-03-02T11:00:05.955Z,-4.00
2018-03-02T11:01:05.386Z,-4.00
2018-03-02T11:02:10.621Z,-3.90
2018-03-02T11:03:09.408Z,-3.90
2018-03-02T11:04:11.205Z,-3.90
2018-03-02T11:05:05.982Z,-3.90
2018-03-02T11:06:06.407Z,-3.80
2018-03-02T11:07:06.281Z,-3.80
2018-03-02T11:08:05.606Z,-3.80
2018-03-02T11:09:05.952Z,-3.70
2018-03-02T11:10:05.733Z,-3.70
2018-03-02T11:11:05.593Z,-3.70
2018-03-02T11:12:05.951Z,-3.70
2018-03-02T11:13:06.104Z,-3.70
2018-03-02T11:14:05.777Z,-3.60
2018-03-02T11:15:10.732Z,-3.60
2018-03-02T11:16:11.054Z,-3.60
2018-03-02T11:17:07.068Z,-3.60
2018-03-02T11:18:05.920Z,-3.60
2018-03-02T11:19:05.707Z,-3.60
2018-03-02T11:20:08.205Z,-3.50
2018-03-02T11:21:06.058Z,-3.50
2018-03-02T11:22:06.103Z,-3.50
2018-03-02T11:23:10.275Z,-3.40
2018-03-02T11:24:10.608Z,-3.40
2018-03-02T11:25:05.989Z,-3.40
2018-03-02T11:26:05.327Z,-3.40
2018-03-02T11:27:05.674Z,-3.40
2018-03-02T11:28:06.159Z,-3.40
2018-03-02T11:29:05.617Z,-3.40
2018-03-02T11:30:05.941Z,-3.40
2018-03-02T11:31:08.265Z,-3.40
2018-03-02T11:32:06.080Z,-3.40
2018-03-02T11:33:07.977Z,-3.30
2018-03-02T11:34:05.611Z,-3.30
2018-03-02T11:35:08.400Z,-3.20
2018-03-02T11:36:05.950Z,-3.30
2018-03-02T11:37:05.983Z,-3.20
2018-03-02T11:38:06.403Z,-3.20
2018-03-02T11:39:06.381Z,-3.20
2018-03-02T11:40:05.963Z,-3.20
2018-03-02T11:41:08.380Z,-3.10
2018-03-02T11:42:06.007Z,-3.10
2018-03-02T11:43:05.540Z,-3.10
2018-03-02T11:44:05.654Z,-3.10
2018-03-02T11:45:08.625Z,-3.00
2018-03-02T11:46:13.720Z,-2.90
2018-03-02T11:47:05.253Z,-3.00
2018-03-02T11:48:05.593Z,-2.90
2018-03-02T11:49:06.034Z,-2.90
2018-03-02T11:50:05.232Z,-2.90
2018-03-02T11:51:06.080Z,-2.80
2018-03-02T11:52:06.189Z,-2.80
2018-03-02T11:53:10.733Z,-2.80
2018-03-02T11:54:05.990Z,-2.80
2018-03-02T11:55:05.360Z,-2.80
2018-03-02T11:56:06.024Z,-2.80
2018-03-02T11:57:05.360Z,-2.80
2018-03-02T11:58:08.804Z,-2.70
2018-03-02T11:59:05.312Z,-2.70
2018-03-02T12:00:11.052Z,-2.70
2018-03-02T12:01:10.774Z,-2.70
2018-03-02T12:02:05.283Z,-2.60
2018-03-02T12:03:05.784Z,-2.60
2018-03-02T12:04:08.389Z,-2.50
2018-03-02T12:05:08.553Z,-2.40
2018-03-02T12:06:06.382Z,-2.40
2018-03-02T12:07:08.000Z,-2.40
2018-03-02T12:08:05.672Z,-2.50
2018-03-02T12:09:05.996Z,-2.40
2018-03-02T12:10:05.625Z,-2.30
2018-03-02T12:11:10.600Z,-2.30
2018-03-02T12:12:05.339Z,-2.30
2018-03-02T12:13:06.095Z,-2.30
2018-03-02T12:14:05.723Z,-2.30
2018-03-02T12:15:06.024Z,-2.30
2018-03-02T12:16:06.127Z,-2.30
2018-03-02T12:17:08.522Z,-2.30
2018-03-02T12:18:06.118Z,-2.30
2018-03-02T12:19:05.700Z,-2.30
2018-03-02T12:20:08.521Z,-2.30
2018-03-02T12:21:06.084Z,-2.30
2018-03-02T12:22:05.792Z,-2.30
2018-03-02T12:23:05.615Z,-2.30
2018-03-02T12:24:05.990Z,-2.30
2018-03-02T12:25:06.021Z,-2.20
2018-03-02T12:26:05.703Z,-2.20
2018-03-02T12:27:06.391Z,-2.20
2018-03-02T12:28:06.027Z,-2.20
2018-03-02T12:29:08.457Z,-2.10
2018-03-02T12:30:06.401Z,-2.10
2018-03-02T12:31:10.209Z,-2.00
2018-03-02T12:32:05.260Z,-2.00
2018-03-02T12:33:05.614Z,-2.00
2018-03-02T12:34:05.395Z,-2.00
2018-03-02T12:35:10.339Z,-1.90
2018-03-02T12:36:06.030Z,-1.80
2018-03-02T12:37:05.791Z,-1.80
2018-03-02T12:38:08.618Z,-1.70
2018-03-02T12:39:05.363Z,-1.80
2018-03-02T12:40:08.591Z,-1.70
2018-03-02T12:41:06.450Z,-1.70
2018-03-02T12:42:05.609Z,-1.70
2018-03-02T12:43:06.118Z,-1.70
2018-03-02T12:44:05.709Z,-1.70